sensor_id;sensor_type;location;lat;lon;timestamp;P1;durP1;ratioP1;P2;durP2;ratioP2
37973;SDS011;23796;51.458;7.000;2023-11-19T00:02:24;2.72;;;1.70;;
37973;SDS011;23796;51.458;7.000;2023-11-19T00:04:50;2.60;;;1.52;;
37973;SDS011;23796;51.458;7.000;2023-11-19T00:07:16;2.47;;;1.40;;
37973;SDS011;23796;51.458;7.000;2023-11-19T00:09:41;4.43;;;1.75;;
37973;SDS011;23796;51.458;7.000;2023-11-19T00:12:08;3.22;;;1.33;;
37973;SDS011;23796;51.458;7.000;2023-11-19T00:14:34;4.25;;;1.65;;
37973;SDS011;23796;51.458;7.000;2023-11-19T00:17:00;3.30;;;1.70;;
37973;SDS011;23796;51.458;7.000;2023-11-19T00:19:29;3.83;;;1.80;;
37973;SDS011;23796;51.458;7.000;2023-11-19T00:21:54;3.00;;;1.92;;
37973;SDS011;23796;51.458;7.000;2023-11-19T00:24:20;2.75;;;1.58;;
37973;SDS011;23796;51.458;7.000;2023-11-19T00:26:45;3.53;;;1.67;;
37973;SDS011;23796;51.458;7.000;2023-11-19T00:29:11;4.18;;;1.95;;
37973;SDS011;23796;51.458;7.000;2023-11-19T00:31:38;4.35;;;1.70;;
37973;SDS011;23796;51.458;7.000;2023-11-19T00:34:06;3.40;;;1.70;;
37973;SDS011;23796;51.458;7.000;2023-11-19T00:36:32;5.22;;;1.70;;
37973;SDS011;23796;51.458;7.000;2023-11-19T00:38:57;3.35;;;1.90;;
37973;SDS011;23796;51.458;7.000;2023-11-19T00:41:23;4.47;;;1.85;;
37973;SDS011;23796;51.458;7.000;2023-11-19T00:43:50;3.22;;;1.80;;
37973;SDS011;23796;51.458;7.000;2023-11-19T00:46:16;2.97;;;1.70;;
37973;SDS011;23796;51.458;7.000;2023-11-19T00:48:41;4.03;;;1.60;;
37973;SDS011;23796;51.458;7.000;2023-11-19T00:51:07;3.53;;;1.67;;
37973;SDS011;23796;51.458;7.000;2023-11-19T00:53:35;2.60;;;1.65;;
37973;SDS011;23796;51.458;7.000;2023-11-19T00:56:03;4.03;;;1.58;;
37973;SDS011;23796;51.458;7.000;2023-11-19T00:58:31;2.88;;;1.77;;
37973;SDS011;23796;51.458;7.000;2023-11-19T01:00:57;3.97;;;1.98;;
37973;SDS011;23796;51.458;7.000;2023-11-19T01:03:25;4.32;;;1.75;;
37973;SDS011;23796;51.458;7.000;2023-11-19T01:05:51;3.30;;;1.55;;
37973;SDS011;23796;51.458;7.000;2023-11-19T01:08:17;3.97;;;1.70;;
37973;SDS011;23796;51.458;7.000;2023-11-19T01:10:44;2.80;;;1.38;;
37973;SDS011;23796;51.458;7.000;2023-11-19T01:13:09;2.20;;;1.35;;
37973;SDS011;23796;51.458;7.000;2023-11-19T01:15:35;2.83;;;1.40;;
37973;SDS011;23796;51.458;7.000;2023-11-19T01:18:00;3.17;;;1.45;;
37973;SDS011;23796;51.458;7.000;2023-11-19T01:20:30;2.13;;;1.38;;
37973;SDS011;23796;51.458;7.000;2023-11-19T01:22:55;2.72;;;1.17;;
37973;SDS011;23796;51.458;7.000;2023-11-19T01:25:21;2.33;;;1.35;;
37973;SDS011;23796;51.458;7.000;2023-11-19T01:27:46;2.53;;;1.05;;
37973;SDS011;23796;51.458;7.000;2023-11-19T01:30:12;2.30;;;1.27;;
37973;SDS011;23796;51.458;7.000;2023-11-19T01:32:39;2.53;;;1.23;;
37973;SDS011;23796;51.458;7.000;2023-11-19T01:35:08;1.83;;;0.82;;
37973;SDS011;23796;51.458;7.000;2023-11-19T01:37:33;2.35;;;1.02;;
37973;SDS011;23796;51.458;7.000;2023-11-19T01:40:02;3.70;;;1.20;;
37973;SDS011;23796;51.458;7.000;2023-11-19T01:42:32;2.90;;;1.15;;
37973;SDS011;23796;51.458;7.000;2023-11-19T01:45:02;3.58;;;1.20;;
37973;SDS011;23796;51.458;7.000;2023-11-19T01:47:31;2.95;;;1.00;;
37973;SDS011;23796;51.458;7.000;2023-11-19T01:50:00;3.45;;;1.10;;
37973;SDS011;23796;51.458;7.000;2023-11-19T01:52:28;1.92;;;0.93;;
37973;SDS011;23796;51.458;7.000;2023-11-19T01:54:54;2.17;;;1.20;;
37973;SDS011;23796;51.458;7.000;2023-11-19T01:57:21;2.00;;;1.00;;
37973;SDS011;23796;51.458;7.000;2023-11-19T01:59:48;2.95;;;1.27;;
37973;SDS011;23796;51.458;7.000;2023-11-19T02:02:18;2.58;;;1.13;;
37973;SDS011;23796;51.458;7.000;2023-11-19T02:04:49;4.15;;;1.65;;
37973;SDS011;23796;51.458;7.000;2023-11-19T02:07:17;3.45;;;1.52;;
37973;SDS011;23796;51.458;7.000;2023-11-19T02:09:43;3.17;;;1.35;;
37973;SDS011;23796;51.458;7.000;2023-11-19T02:12:09;3.30;;;1.23;;
37973;SDS011;23796;51.458;7.000;2023-11-19T02:14:38;2.60;;;1.08;;
37973;SDS011;23796;51.458;7.000;2023-11-19T02:17:04;3.33;;;0.90;;
37973;SDS011;23796;51.458;7.000;2023-11-19T02:19:29;2.83;;;1.00;;
37973;SDS011;23796;51.458;7.000;2023-11-19T02:21:57;3.28;;;0.93;;
37973;SDS011;23796;51.458;7.000;2023-11-19T02:24:23;4.25;;;1.08;;
37973;SDS011;23796;51.458;7.000;2023-11-19T02:29:27;5.30;;;1.30;;
37973;SDS011;23796;51.458;7.000;2023-11-19T02:31:52;3.97;;;1.00;;
37973;SDS011;23796;51.458;7.000;2023-11-19T02:34:20;4.60;;;1.08;;
37973;SDS011;23796;51.458;7.000;2023-11-19T02:36:46;4.40;;;1.30;;
37973;SDS011;23796;51.458;7.000;2023-11-19T02:39:12;5.28;;;1.60;;
37973;SDS011;23796;51.458;7.000;2023-11-19T02:41:38;4.53;;;0.90;;
37973;SDS011;23796;51.458;7.000;2023-11-19T02:44:06;4.10;;;1.20;;
37973;SDS011;23796;51.458;7.000;2023-11-19T02:46:34;3.00;;;0.98;;
37973;SDS011;23796;51.458;7.000;2023-11-19T02:49:00;5.60;;;1.40;;
37973;SDS011;23796;51.458;7.000;2023-11-19T02:51:25;5.57;;;1.15;;
37973;SDS011;23796;51.458;7.000;2023-11-19T02:53:52;4.43;;;1.30;;
37973;SDS011;23796;51.458;7.000;2023-11-19T02:56:18;3.25;;;0.98;;
37973;SDS011;23796;51.458;7.000;2023-11-19T02:58:54;8.02;;;1.67;;
37973;SDS011;23796;51.458;7.000;2023-11-19T03:01:23;6.28;;;1.83;;
37973;SDS011;23796;51.458;7.000;2023-11-19T03:03:59;4.72;;;1.27;;
37973;SDS011;23796;51.458;7.000;2023-11-19T03:06:26;4.43;;;1.40;;
37973;SDS011;23796;51.458;7.000;2023-11-19T03:08:52;3.58;;;1.23;;
37973;SDS011;23796;51.458;7.000;2023-11-19T03:11:20;5.35;;;1.25;;
37973;SDS011;23796;51.458;7.000;2023-11-19T03:13:45;8.40;;;1.60;;
37973;SDS011;23796;51.458;7.000;2023-11-19T03:16:11;7.28;;;1.63;;
37973;SDS011;23796;51.458;7.000;2023-11-19T03:18:37;4.45;;;1.38;;
37973;SDS011;23796;51.458;7.000;2023-11-19T03:21:04;6.10;;;1.75;;
37973;SDS011;23796;51.458;7.000;2023-11-19T03:23:31;6.50;;;1.10;;
37973;SDS011;23796;51.458;7.000;2023-11-19T03:25:56;5.90;;;1.90;;
37973;SDS011;23796;51.458;7.000;2023-11-19T03:28:22;6.57;;;1.70;;
37973;SDS011;23796;51.458;7.000;2023-11-19T03:30:50;4.13;;;1.20;;
37973;SDS011;23796;51.458;7.000;2023-11-19T03:33:15;6.35;;;2.10;;
37973;SDS011;23796;51.458;7.000;2023-11-19T03:35:41;6.68;;;1.63;;
37973;SDS011;23796;51.458;7.000;2023-11-19T03:38:07;7.80;;;1.90;;
37973;SDS011;23796;51.458;7.000;2023-11-19T03:40:32;6.40;;;1.67;;
37973;SDS011;23796;51.458;7.000;2023-11-19T03:42:58;7.25;;;1.77;;
37973;SDS011;23796;51.458;7.000;2023-11-19T03:45:24;4.72;;;1.40;;
37973;SDS011;23796;51.458;7.000;2023-11-19T03:47:50;8.48;;;2.17;;
37973;SDS011;23796;51.458;7.000;2023-11-19T03:50:16;8.25;;;2.25;;
37973;SDS011;23796;51.458;7.000;2023-11-19T03:52:43;9.32;;;2.40;;
37973;SDS011;23796;51.458;7.000;2023-11-19T03:55:08;11.05;;;2.78;;
37973;SDS011;23796;51.458;7.000;2023-11-19T03:57:34;11.55;;;2.63;;
37973;SDS011;23796;51.458;7.000;2023-11-19T04:00:00;12.88;;;2.97;;
37973;SDS011;23796;51.458;7.000;2023-11-19T04:02:33;11.00;;;2.65;;
37973;SDS011;23796;51.458;7.000;2023-11-19T04:04:59;11.05;;;2.47;;
37973;SDS011;23796;51.458;7.000;2023-11-19T04:07:24;10.75;;;2.80;;
37973;SDS011;23796;51.458;7.000;2023-11-19T04:09:50;9.98;;;3.08;;
37973;SDS011;23796;51.458;7.000;2023-11-19T04:12:15;11.88;;;3.13;;
37973;SDS011;23796;51.458;7.000;2023-11-19T04:14:41;9.77;;;2.65;;
37973;SDS011;23796;51.458;7.000;2023-11-19T04:17:07;10.27;;;2.30;;
37973;SDS011;23796;51.458;7.000;2023-11-19T04:19:35;10.73;;;3.38;;
37973;SDS011;23796;51.458;7.000;2023-11-19T04:22:00;10.63;;;3.20;;
37973;SDS011;23796;51.458;7.000;2023-11-19T04:24:27;10.45;;;3.25;;
37973;SDS011;23796;51.458;7.000;2023-11-19T04:26:53;12.85;;;3.30;;
37973;SDS011;23796;51.458;7.000;2023-11-19T04:29:18;9.32;;;3.35;;
37973;SDS011;23796;51.458;7.000;2023-11-19T04:31:46;14.18;;;3.20;;
37973;SDS011;23796;51.458;7.000;2023-11-19T04:34:12;11.40;;;3.20;;
37973;SDS011;23796;51.458;7.000;2023-11-19T04:36:37;13.85;;;3.45;;
37973;SDS011;23796;51.458;7.000;2023-11-19T04:39:08;12.55;;;3.03;;
37973;SDS011;23796;51.458;7.000;2023-11-19T04:41:34;11.57;;;3.88;;
37973;SDS011;23796;51.458;7.000;2023-11-19T04:44:20;13.85;;;3.63;;
37973;SDS011;23796;51.458;7.000;2023-11-19T04:46:46;15.60;;;3.50;;
37973;SDS011;23796;51.458;7.000;2023-11-19T04:49:14;13.02;;;4.13;;
37973;SDS011;23796;51.458;7.000;2023-11-19T04:51:41;16.15;;;3.83;;
37973;SDS011;23796;51.458;7.000;2023-11-19T04:54:12;13.57;;;3.42;;
37973;SDS011;23796;51.458;7.000;2023-11-19T04:56:38;16.08;;;4.32;;
37973;SDS011;23796;51.458;7.000;2023-11-19T04:59:06;14.20;;;3.53;;
37973;SDS011;23796;51.458;7.000;2023-11-19T05:01:33;17.58;;;3.90;;
37973;SDS011;23796;51.458;7.000;2023-11-19T05:03:59;16.20;;;3.78;;
37973;SDS011;23796;51.458;7.000;2023-11-19T05:06:28;13.38;;;3.40;;
37973;SDS011;23796;51.458;7.000;2023-11-19T05:08:55;14.10;;;4.00;;
37973;SDS011;23796;51.458;7.000;2023-11-19T05:11:22;16.33;;;3.85;;
37973;SDS011;23796;51.458;7.000;2023-11-19T05:13:47;16.15;;;4.88;;
37973;SDS011;23796;51.458;7.000;2023-11-19T05:16:13;16.27;;;3.65;;
37973;SDS011;23796;51.458;7.000;2023-11-19T05:18:42;13.50;;;3.42;;
37973;SDS011;23796;51.458;7.000;2023-11-19T05:21:07;13.43;;;3.10;;
37973;SDS011;23796;51.458;7.000;2023-11-19T05:23:33;13.13;;;3.25;;
37973;SDS011;23796;51.458;7.000;2023-11-19T05:26:01;16.25;;;3.75;;
37973;SDS011;23796;51.458;7.000;2023-11-19T05:28:27;15.07;;;3.38;;
37973;SDS011;23796;51.458;7.000;2023-11-19T05:30:55;14.73;;;3.85;;
37973;SDS011;23796;51.458;7.000;2023-11-19T05:33:21;19.63;;;4.53;;
37973;SDS011;23796;51.458;7.000;2023-11-19T05:35:47;16.20;;;4.15;;
37973;SDS011;23796;51.458;7.000;2023-11-19T05:38:12;14.25;;;4.38;;
37973;SDS011;23796;51.458;7.000;2023-11-19T05:40:38;16.60;;;3.70;;
37973;SDS011;23796;51.458;7.000;2023-11-19T05:43:04;19.48;;;4.25;;
37973;SDS011;23796;51.458;7.000;2023-11-19T05:45:30;18.27;;;4.55;;
37973;SDS011;23796;51.458;7.000;2023-11-19T05:47:57;17.83;;;4.15;;
37973;SDS011;23796;51.458;7.000;2023-11-19T05:50:22;14.50;;;4.20;;
37973;SDS011;23796;51.458;7.000;2023-11-19T05:52:48;20.15;;;4.38;;
37973;SDS011;23796;51.458;7.000;2023-11-19T05:55:14;15.05;;;3.95;;
37973;SDS011;23796;51.458;7.000;2023-11-19T05:57:42;17.40;;;5.20;;
37973;SDS011;23796;51.458;7.000;2023-11-19T06:00:08;14.45;;;3.83;;
37973;SDS011;23796;51.458;7.000;2023-11-19T06:02:35;16.63;;;4.65;;
37973;SDS011;23796;51.458;7.000;2023-11-19T06:05:03;13.43;;;3.80;;
37973;SDS011;23796;51.458;7.000;2023-11-19T06:07:30;12.35;;;3.20;;
37973;SDS011;23796;51.458;7.000;2023-11-19T06:09:56;14.70;;;3.83;;
37973;SDS011;23796;51.458;7.000;2023-11-19T06:12:22;14.93;;;3.92;;
37973;SDS011;23796;51.458;7.000;2023-11-19T06:14:52;18.50;;;3.75;;
37973;SDS011;23796;51.458;7.000;2023-11-19T06:17:18;16.00;;;3.60;;
37973;SDS011;23796;51.458;7.000;2023-11-19T06:19:43;16.98;;;4.18;;
37973;SDS011;23796;51.458;7.000;2023-11-19T06:22:10;14.32;;;3.65;;
37973;SDS011;23796;51.458;7.000;2023-11-19T06:24:36;19.38;;;4.43;;
37973;SDS011;23796;51.458;7.000;2023-11-19T06:27:01;14.38;;;3.15;;
37973;SDS011;23796;51.458;7.000;2023-11-19T06:29:29;14.13;;;4.57;;
37973;SDS011;23796;51.458;7.000;2023-11-19T06:31:55;18.17;;;4.40;;
37973;SDS011;23796;51.458;7.000;2023-11-19T06:34:20;14.40;;;3.80;;
37973;SDS011;23796;51.458;7.000;2023-11-19T06:36:46;12.18;;;3.42;;
37973;SDS011;23796;51.458;7.000;2023-11-19T06:39:13;16.95;;;4.15;;
37973;SDS011;23796;51.458;7.000;2023-11-19T06:41:44;14.43;;;4.28;;
37973;SDS011;23796;51.458;7.000;2023-11-19T06:44:11;14.55;;;3.85;;
37973;SDS011;23796;51.458;7.000;2023-11-19T06:46:37;15.82;;;4.18;;
37973;SDS011;23796;51.458;7.000;2023-11-19T06:49:02;17.15;;;4.53;;
37973;SDS011;23796;51.458;7.000;2023-11-19T06:51:28;17.70;;;5.25;;
37973;SDS011;23796;51.458;7.000;2023-11-19T06:53:57;15.45;;;4.35;;
37973;SDS011;23796;51.458;7.000;2023-11-19T06:56:23;14.18;;;4.03;;
37973;SDS011;23796;51.458;7.000;2023-11-19T06:58:52;15.07;;;4.15;;
37973;SDS011;23796;51.458;7.000;2023-11-19T07:01:18;20.08;;;4.18;;
37973;SDS011;23796;51.458;7.000;2023-11-19T07:03:47;14.98;;;4.50;;
37973;SDS011;23796;51.458;7.000;2023-11-19T07:06:13;18.15;;;5.78;;
37973;SDS011;23796;51.458;7.000;2023-11-19T07:08:41;18.55;;;4.53;;
37973;SDS011;23796;51.458;7.000;2023-11-19T07:11:06;19.08;;;4.95;;
37973;SDS011;23796;51.458;7.000;2023-11-19T07:13:34;16.15;;;4.13;;
37973;SDS011;23796;51.458;7.000;2023-11-19T07:16:00;15.88;;;4.60;;
37973;SDS011;23796;51.458;7.000;2023-11-19T07:18:26;16.27;;;4.60;;
37973;SDS011;23796;51.458;7.000;2023-11-19T07:20:54;14.30;;;3.92;;
37973;SDS011;23796;51.458;7.000;2023-11-19T07:23:20;14.27;;;4.28;;
37973;SDS011;23796;51.458;7.000;2023-11-19T07:25:46;17.23;;;3.78;;
37973;SDS011;23796;51.458;7.000;2023-11-19T07:28:12;16.88;;;4.35;;
37973;SDS011;23796;51.458;7.000;2023-11-19T07:30:38;13.95;;;4.20;;
37973;SDS011;23796;51.458;7.000;2023-11-19T07:33:04;16.60;;;3.70;;
37973;SDS011;23796;51.458;7.000;2023-11-19T07:35:29;13.02;;;3.67;;
37973;SDS011;23796;51.458;7.000;2023-11-19T07:37:58;16.58;;;4.53;;
37973;SDS011;23796;51.458;7.000;2023-11-19T07:40:24;15.02;;;4.22;;
37973;SDS011;23796;51.458;7.000;2023-11-19T07:42:50;15.95;;;4.38;;
37973;SDS011;23796;51.458;7.000;2023-11-19T07:45:16;14.40;;;4.15;;
37973;SDS011;23796;51.458;7.000;2023-11-19T07:47:42;18.83;;;4.95;;
37973;SDS011;23796;51.458;7.000;2023-11-19T07:50:10;15.02;;;3.90;;
37973;SDS011;23796;51.458;7.000;2023-11-19T07:52:39;13.27;;;3.60;;
37973;SDS011;23796;51.458;7.000;2023-11-19T07:55:04;18.15;;;4.30;;
37973;SDS011;23796;51.458;7.000;2023-11-19T07:57:30;16.92;;;4.65;;
37973;SDS011;23796;51.458;7.000;2023-11-19T07:59:59;16.45;;;5.25;;
37973;SDS011;23796;51.458;7.000;2023-11-19T08:02:26;17.33;;;4.22;;
37973;SDS011;23796;51.458;7.000;2023-11-19T08:04:52;16.23;;;3.83;;
37973;SDS011;23796;51.458;7.000;2023-11-19T08:07:19;16.77;;;3.90;;
37973;SDS011;23796;51.458;7.000;2023-11-19T08:09:46;19.48;;;4.38;;
37973;SDS011;23796;51.458;7.000;2023-11-19T08:12:12;19.10;;;5.18;;
37973;SDS011;23796;51.458;7.000;2023-11-19T08:14:39;18.15;;;4.72;;
37973;SDS011;23796;51.458;7.000;2023-11-19T08:17:05;18.45;;;4.57;;
37973;SDS011;23796;51.458;7.000;2023-11-19T08:19:30;19.05;;;4.55;;
37973;SDS011;23796;51.458;7.000;2023-11-19T08:21:58;21.33;;;4.22;;
37973;SDS011;23796;51.458;7.000;2023-11-19T08:24:24;18.55;;;4.60;;
37973;SDS011;23796;51.458;7.000;2023-11-19T08:26:53;16.27;;;4.75;;
37973;SDS011;23796;51.458;7.000;2023-11-19T08:29:19;14.43;;;4.10;;
37973;SDS011;23796;51.458;7.000;2023-11-19T08:31:44;19.20;;;4.72;;
37973;SDS011;23796;51.458;7.000;2023-11-19T08:34:12;20.52;;;4.95;;
37973;SDS011;23796;51.458;7.000;2023-11-19T08:36:40;20.75;;;4.90;;
37973;SDS011;23796;51.458;7.000;2023-11-19T08:39:06;22.02;;;4.82;;
37973;SDS011;23796;51.458;7.000;2023-11-19T08:41:33;25.88;;;4.60;;
37973;SDS011;23796;51.458;7.000;2023-11-19T08:44:03;17.38;;;4.40;;
37973;SDS011;23796;51.458;7.000;2023-11-19T08:46:28;18.95;;;5.35;;
37973;SDS011;23796;51.458;7.000;2023-11-19T08:48:54;18.55;;;4.70;;
37973;SDS011;23796;51.458;7.000;2023-11-19T08:51:22;18.83;;;4.65;;
37973;SDS011;23796;51.458;7.000;2023-11-19T08:53:49;19.60;;;5.13;;
37973;SDS011;23796;51.458;7.000;2023-11-19T08:56:17;16.50;;;4.65;;
37973;SDS011;23796;51.458;7.000;2023-11-19T08:58:43;17.60;;;4.80;;
37973;SDS011;23796;51.458;7.000;2023-11-19T09:01:08;17.77;;;5.38;;
37973;SDS011;23796;51.458;7.000;2023-11-19T09:03:34;21.90;;;4.45;;
37973;SDS011;23796;51.458;7.000;2023-11-19T09:06:01;14.75;;;4.45;;
37973;SDS011;23796;51.458;7.000;2023-11-19T09:08:30;20.48;;;4.85;;
37973;SDS011;23796;51.458;7.000;2023-11-19T09:10:55;16.27;;;4.47;;
37973;SDS011;23796;51.458;7.000;2023-11-19T09:13:21;21.05;;;4.53;;
37973;SDS011;23796;51.458;7.000;2023-11-19T09:15:46;15.23;;;4.70;;
37973;SDS011;23796;51.458;7.000;2023-11-19T09:18:12;16.17;;;4.85;;
37973;SDS011;23796;51.458;7.000;2023-11-19T09:20:37;16.98;;;4.68;;
37973;SDS011;23796;51.458;7.000;2023-11-19T09:23:04;14.82;;;3.90;;
37973;SDS011;23796;51.458;7.000;2023-11-19T09:25:30;17.58;;;4.53;;
37973;SDS011;23796;51.458;7.000;2023-11-19T09:27:59;20.30;;;4.28;;
37973;SDS011;23796;51.458;7.000;2023-11-19T09:30:24;17.13;;;4.63;;
37973;SDS011;23796;51.458;7.000;2023-11-19T09:32:50;20.20;;;4.88;;
37973;SDS011;23796;51.458;7.000;2023-11-19T09:35:17;17.67;;;5.22;;
37973;SDS011;23796;51.458;7.000;2023-11-19T09:37:45;18.23;;;5.25;;
37973;SDS011;23796;51.458;7.000;2023-11-19T09:40:11;14.90;;;4.38;;
37973;SDS011;23796;51.458;7.000;2023-11-19T09:42:43;17.30;;;5.13;;
37973;SDS011;23796;51.458;7.000;2023-11-19T09:45:12;18.23;;;5.18;;
37973;SDS011;23796;51.458;7.000;2023-11-19T09:47:42;18.02;;;5.25;;
37973;SDS011;23796;51.458;7.000;2023-11-19T09:50:10;18.08;;;4.68;;
37973;SDS011;23796;51.458;7.000;2023-11-19T09:52:44;18.30;;;4.70;;
37973;SDS011;23796;51.458;7.000;2023-11-19T09:55:10;17.55;;;4.40;;
37973;SDS011;23796;51.458;7.000;2023-11-19T09:57:39;15.07;;;4.47;;
37973;SDS011;23796;51.458;7.000;2023-11-19T10:00:06;19.50;;;4.93;;
37973;SDS011;23796;51.458;7.000;2023-11-19T10:02:33;16.00;;;5.10;;
37973;SDS011;23796;51.458;7.000;2023-11-19T10:05:04;18.63;;;4.97;;
37973;SDS011;23796;51.458;7.000;2023-11-19T10:07:31;18.67;;;4.63;;
37973;SDS011;23796;51.458;7.000;2023-11-19T10:10:00;15.07;;;4.47;;
37973;SDS011;23796;51.458;7.000;2023-11-19T10:12:29;21.80;;;5.35;;
37973;SDS011;23796;51.458;7.000;2023-11-19T10:14:58;19.83;;;5.80;;
37973;SDS011;23796;51.458;7.000;2023-11-19T10:17:42;18.20;;;4.93;;
37973;SDS011;23796;51.458;7.000;2023-11-19T10:20:08;19.90;;;5.80;;
37973;SDS011;23796;51.458;7.000;2023-11-19T10:22:36;16.73;;;5.55;;
37973;SDS011;23796;51.458;7.000;2023-11-19T10:25:02;17.65;;;5.35;;
37973;SDS011;23796;51.458;7.000;2023-11-19T10:27:28;21.17;;;5.07;;
37973;SDS011;23796;51.458;7.000;2023-11-19T10:29:53;19.77;;;5.00;;
37973;SDS011;23796;51.458;7.000;2023-11-19T10:32:19;18.10;;;4.25;;
37973;SDS011;23796;51.458;7.000;2023-11-19T10:34:45;18.00;;;5.45;;
37973;SDS011;23796;51.458;7.000;2023-11-19T10:37:28;15.32;;;4.43;;
37973;SDS011;23796;51.458;7.000;2023-11-19T10:39:57;15.95;;;4.05;;
37973;SDS011;23796;51.458;7.000;2023-11-19T10:42:23;20.75;;;4.63;;
37973;SDS011;23796;51.458;7.000;2023-11-19T10:44:49;17.92;;;5.47;;
37973;SDS011;23796;51.458;7.000;2023-11-19T10:47:15;17.10;;;4.72;;
37973;SDS011;23796;51.458;7.000;2023-11-19T10:49:43;20.20;;;4.88;;
37973;SDS011;23796;51.458;7.000;2023-11-19T10:52:11;19.70;;;5.47;;
37973;SDS011;23796;51.458;7.000;2023-11-19T10:54:42;20.00;;;6.57;;
37973;SDS011;23796;51.458;7.000;2023-11-19T10:57:09;14.25;;;4.38;;
37973;SDS011;23796;51.458;7.000;2023-11-19T10:59:39;17.92;;;5.05;;
37973;SDS011;23796;51.458;7.000;2023-11-19T11:02:06;20.25;;;5.18;;
37973;SDS011;23796;51.458;7.000;2023-11-19T11:04:39;14.93;;;5.55;;
37973;SDS011;23796;51.458;7.000;2023-11-19T11:07:10;16.00;;;4.47;;
37973;SDS011;23796;51.458;7.000;2023-11-19T11:09:37;13.75;;;4.50;;
37973;SDS011;23796;51.458;7.000;2023-11-19T11:12:04;16.42;;;4.60;;
37973;SDS011;23796;51.458;7.000;2023-11-19T11:14:34;15.80;;;3.90;;
37973;SDS011;23796;51.458;7.000;2023-11-19T11:17:05;16.63;;;4.47;;
37973;SDS011;23796;51.458;7.000;2023-11-19T11:19:33;15.30;;;4.05;;
37973;SDS011;23796;51.458;7.000;2023-11-19T11:22:04;14.60;;;3.92;;
37973;SDS011;23796;51.458;7.000;2023-11-19T11:35:39;15.45;;;4.15;;
37973;SDS011;23796;51.458;7.000;2023-11-19T11:38:08;15.10;;;4.40;;
37973;SDS011;23796;51.458;7.000;2023-11-19T11:40:34;14.65;;;4.10;;
37973;SDS011;23796;51.458;7.000;2023-11-19T11:43:01;15.85;;;4.55;;
37973;SDS011;23796;51.458;7.000;2023-11-19T11:45:39;14.15;;;4.07;;
37973;SDS011;23796;51.458;7.000;2023-11-19T11:48:09;13.13;;;3.97;;
37973;SDS011;23796;51.458;7.000;2023-11-19T11:50:49;18.20;;;5.57;;
37973;SDS011;23796;51.458;7.000;2023-11-19T11:53:17;16.13;;;4.28;;
37973;SDS011;23796;51.458;7.000;2023-11-19T12:00:46;16.52;;;5.25;;
37973;SDS011;23796;51.458;7.000;2023-11-19T12:03:13;14.50;;;3.83;;
37973;SDS011;23796;51.458;7.000;2023-11-19T12:05:46;13.85;;;4.22;;
37973;SDS011;23796;51.458;7.000;2023-11-19T12:08:13;13.13;;;3.67;;
37973;SDS011;23796;51.458;7.000;2023-11-19T12:10:47;16.10;;;5.53;;
37973;SDS011;23796;51.458;7.000;2023-11-19T12:13:14;17.20;;;4.25;;
37973;SDS011;23796;51.458;7.000;2023-11-19T12:18:22;12.88;;;4.40;;
37973;SDS011;23796;51.458;7.000;2023-11-19T12:20:49;15.90;;;4.07;;
37973;SDS011;23796;51.458;7.000;2023-11-19T12:23:15;15.43;;;3.88;;
37973;SDS011;23796;51.458;7.000;2023-11-19T12:25:41;13.73;;;3.80;;
37973;SDS011;23796;51.458;7.000;2023-11-19T12:28:11;13.85;;;3.75;;
37973;SDS011;23796;51.458;7.000;2023-11-19T12:30:38;11.25;;;3.20;;
37973;SDS011;23796;51.458;7.000;2023-11-19T12:33:12;18.35;;;4.50;;
37973;SDS011;23796;51.458;7.000;2023-11-19T12:35:48;16.52;;;3.78;;
37973;SDS011;23796;51.458;7.000;2023-11-19T12:43:30;12.32;;;3.92;;
37973;SDS011;23796;51.458;7.000;2023-11-19T12:45:58;12.82;;;3.63;;
37973;SDS011;23796;51.458;7.000;2023-11-19T12:48:24;13.00;;;3.03;;
37973;SDS011;23796;51.458;7.000;2023-11-19T12:50:57;14.40;;;3.80;;
37973;SDS011;23796;51.458;7.000;2023-11-19T12:53:26;18.65;;;3.55;;
37973;SDS011;23796;51.458;7.000;2023-11-19T12:55:54;14.48;;;4.03;;
37973;SDS011;23796;51.458;7.000;2023-11-19T12:58:30;17.00;;;3.90;;
37973;SDS011;23796;51.458;7.000;2023-11-19T13:01:00;12.75;;;4.15;;
37973;SDS011;23796;51.458;7.000;2023-11-19T13:03:36;11.02;;;3.35;;
37973;SDS011;23796;51.458;7.000;2023-11-19T13:08:39;11.90;;;3.53;;
37973;SDS011;23796;51.458;7.000;2023-11-19T13:11:07;14.30;;;3.28;;
37973;SDS011;23796;51.458;7.000;2023-11-19T13:16:21;11.18;;;2.50;;
37973;SDS011;23796;51.458;7.000;2023-11-19T13:18:47;9.27;;;2.72;;
37973;SDS011;23796;51.458;7.000;2023-11-19T13:21:12;7.88;;;2.15;;
37973;SDS011;23796;51.458;7.000;2023-11-19T13:23:38;8.02;;;2.85;;
37973;SDS011;23796;51.458;7.000;2023-11-19T13:26:06;10.73;;;2.83;;
37973;SDS011;23796;51.458;7.000;2023-11-19T13:28:32;10.50;;;2.50;;
37973;SDS011;23796;51.458;7.000;2023-11-19T13:30:58;9.15;;;3.00;;
37973;SDS011;23796;51.458;7.000;2023-11-19T13:33:23;10.70;;;3.30;;
37973;SDS011;23796;51.458;7.000;2023-11-19T13:35:49;11.95;;;3.15;;
37973;SDS011;23796;51.458;7.000;2023-11-19T13:38:14;14.60;;;3.22;;
37973;SDS011;23796;51.458;7.000;2023-11-19T13:40:40;12.07;;;3.60;;
37973;SDS011;23796;51.458;7.000;2023-11-19T13:43:05;10.43;;;3.40;;
37973;SDS011;23796;51.458;7.000;2023-11-19T13:45:32;13.60;;;4.18;;
37973;SDS011;23796;51.458;7.000;2023-11-19T13:47:58;12.77;;;3.38;;
37973;SDS011;23796;51.458;7.000;2023-11-19T13:50:23;12.80;;;3.22;;
37973;SDS011;23796;51.458;7.000;2023-11-19T13:52:49;12.43;;;3.28;;
37973;SDS011;23796;51.458;7.000;2023-11-19T13:55:14;11.18;;;3.35;;
37973;SDS011;23796;51.458;7.000;2023-11-19T13:57:40;15.60;;;3.78;;
37973;SDS011;23796;51.458;7.000;2023-11-19T14:00:09;12.63;;;3.70;;
37973;SDS011;23796;51.458;7.000;2023-11-19T14:02:41;13.70;;;3.85;;
37973;SDS011;23796;51.458;7.000;2023-11-19T14:05:08;13.25;;;3.40;;
37973;SDS011;23796;51.458;7.000;2023-11-19T14:07:35;11.02;;;3.17;;
37973;SDS011;23796;51.458;7.000;2023-11-19T14:10:02;12.70;;;3.97;;
37973;SDS011;23796;51.458;7.000;2023-11-19T14:12:30;13.65;;;3.63;;
37973;SDS011;23796;51.458;7.000;2023-11-19T14:14:57;13.82;;;3.53;;
37973;SDS011;23796;51.458;7.000;2023-11-19T14:17:25;13.70;;;3.70;;
37973;SDS011;23796;51.458;7.000;2023-11-19T14:19:51;13.55;;;3.58;;
37973;SDS011;23796;51.458;7.000;2023-11-19T14:22:17;11.80;;;3.22;;
37973;SDS011;23796;51.458;7.000;2023-11-19T14:24:43;13.48;;;3.58;;
37973;SDS011;23796;51.458;7.000;2023-11-19T14:27:09;18.52;;;4.45;;
37973;SDS011;23796;51.458;7.000;2023-11-19T14:29:35;11.07;;;4.40;;
37973;SDS011;23796;51.458;7.000;2023-11-19T14:32:01;14.60;;;3.58;;
37973;SDS011;23796;51.458;7.000;2023-11-19T14:34:29;15.15;;;3.83;;
37973;SDS011;23796;51.458;7.000;2023-11-19T14:36:55;14.40;;;4.18;;
37973;SDS011;23796;51.458;7.000;2023-11-19T14:39:21;16.50;;;4.45;;
37973;SDS011;23796;51.458;7.000;2023-11-19T14:41:46;12.75;;;4.50;;
37973;SDS011;23796;51.458;7.000;2023-11-19T14:44:15;10.07;;;3.30;;
37973;SDS011;23796;51.458;7.000;2023-11-19T14:46:42;10.43;;;3.58;;
37973;SDS011;23796;51.458;7.000;2023-11-19T14:49:08;13.52;;;3.45;;
37973;SDS011;23796;51.458;7.000;2023-11-19T14:51:37;13.55;;;3.30;;
37973;SDS011;23796;51.458;7.000;2023-11-19T14:54:03;11.40;;;3.00;;
37973;SDS011;23796;51.458;7.000;2023-11-19T14:56:29;16.55;;;2.97;;
37973;SDS011;23796;51.458;7.000;2023-11-19T14:58:57;12.15;;;3.03;;
37973;SDS011;23796;51.458;7.000;2023-11-19T15:01:24;12.10;;;3.38;;
37973;SDS011;23796;51.458;7.000;2023-11-19T15:03:50;13.13;;;3.42;;
37973;SDS011;23796;51.458;7.000;2023-11-19T15:06:15;14.43;;;3.50;;
37973;SDS011;23796;51.458;7.000;2023-11-19T15:08:41;11.02;;;2.42;;
37973;SDS011;23796;51.458;7.000;2023-11-19T15:11:07;11.95;;;3.33;;